Time,TemperatureF,DewpointF,PressureIn,WindDirection,WindDirectionDegrees,WindSpeedMPH,WindSpeedGustMPH,Humidity,HourlyPrecipIn,Conditions,Clouds,dailyrainin,SoftwareType,DateUTC
2013-01-26 00:03:00,57.7,56.7,-100.00,ENE,67,1.0,2.1,96,0.00,,,0.00,,2013-01-26 06:03:00,
2013-01-26 00:08:00,57.5,56.6,-100.00,ENE,67,1.3,2.2,96,0.00,,,0.00,,2013-01-26 06:08:00,
2013-01-26 00:13:00,57.7,56.8,-100.00,ENE,67,1.2,2.0,96,0.00,,,0.00,,2013-01-26 06:13:00,
2013-01-26 00:18:00,57.8,56.9,-100.00,ENE,67,1.1,2.8,96,0.00,,,0.00,,2013-01-26 06:18:00,
2013-01-26 00:23:00,57.8,56.9,-100.00,ENE,67,1.8,2.8,96,0.00,,,0.00,,2013-01-26 06:23:00,
2013-01-26 00:28:00,57.8,57.0,-100.00,ENE,67,1.5,2.6,97,0.00,,,0.00,,2013-01-26 06:28:00,
2013-01-26 00:33:00,57.8,56.6,-100.00,ENE,67,1.4,3.0,95,0.00,,,0.00,,2013-01-26 06:33:00,
2013-01-26 00:38:00,57.8,56.6,-100.00,ENE,67,1.4,3.0,95,0.00,,,0.00,,2013-01-26 06:38:00,
2013-01-26 00:43:00,57.7,56.9,-100.00,ENE,67,1.3,2.6,97,0.00,,,0.00,,2013-01-26 06:43:00,
2013-01-26 00:48:00,57.5,56.7,-100.00,ENE,67,1.1,2.2,97,0.00,,,0.00,,2013-01-26 06:48:00,
2013-01-26 00:53:00,57.4,56.7,-100.00,ENE,67,1.7,3.3,97,0.00,,,0.00,,2013-01-26 06:53:00,
2013-01-26 00:58:00,57.4,56.8,-100.00,ENE,67,1.3,3.3,97,0.00,,,0.00,,2013-01-26 06:58:00,
2013-01-26 01:03:00,57.7,57.0,-100.00,ENE,67,0.8,1.6,97,0.00,,,0.00,,2013-01-26 07:03:00,
2013-01-26 01:08:00,57.7,57.0,-100.00,ENE,67,1.4,2.5,97,0.00,,,0.00,,2013-01-26 07:08:00,
2013-01-26 01:13:00,57.9,56.9,-100.00,ENE,67,1.5,2.9,96,0.00,,,0.00,,2013-01-26 07:13:00,
2013-01-26 01:18:00,57.7,57.0,-100.00,ENE,67,1.5,2.9,97,0.00,,,0.00,,2013-01-26 07:18:00,
2013-01-26 01:23:00,57.9,57.1,-100.00,East,90,1.5,4.0,97,0.00,,,0.00,,2013-01-26 07:23:00,
2013-01-26 01:28:00,57.7,56.9,-100.00,East,90,1.2,4.0,97,0.00,,,0.00,,2013-01-26 07:28:00,
2013-01-26 01:33:00,57.8,57.1,-100.00,East,90,0.9,1.9,97,0.00,,,0.00,,2013-01-26 07:33:00,
2013-01-26 01:38:00,57.8,57.2,-100.00,ESE,112,1.1,2.8,97,0.00,,,0.00,,2013-01-26 07:38:00,
2013-01-26 01:43:00,58.0,57.4,-100.00,ESE,112,1.1,2.8,97,0.00,,,0.00,,2013-01-26 07:43:00,
2013-01-26 01:48:00,58.1,57.0,-100.00,ESE,112,1.2,2.5,96,0.00,,,0.00,,2013-01-26 07:48:00,
2013-01-26 01:53:00,58.0,57.4,-100.00,East,90,1.3,3.0,97,0.00,,,0.00,,2013-01-26 07:53:00,
2013-01-26 01:58:00,58.1,57.5,-100.00,East,90,1.2,3.3,97,0.00,,,0.00,,2013-01-26 07:58:00,
2013-01-26 02:03:00,58.1,57.3,-100.00,East,90,1.1,2.1,97,0.00,,,0.00,,2013-01-26 08:03:00,
2013-01-26 02:08:00,58.0,57.4,-100.00,East,90,1.1,2.1,97,0.00,,,0.00,,2013-01-26 08:08:00,
2013-01-26 02:13:00,58.4,57.7,-100.00,East,90,1.4,3.1,97,0.00,,,0.00,,2013-01-26 08:13:00,
2013-01-26 02:18:00,58.3,58.0,-100.00,East,90,1.2,2.5,98,0.00,,,0.00,,2013-01-26 08:18:00,
2013-01-26 02:23:00,58.4,57.6,-100.00,East,90,1.0,2.7,96,0.00,,,0.00,,2013-01-26 08:23:00,
2013-01-26 02:28:00,58.4,57.7,-100.00,East,90,0.9,2.2,97,0.00,,,0.00,,2013-01-26 08:28:00,
2013-01-26 02:33:00,58.3,57.6,-100.00,East,90,1.1,2.4,97,0.00,,,0.00,,2013-01-26 08:33:00,
2013-01-26 02:38:00,58.5,57.8,-100.00,East,90,1.4,3.6,97,0.00,,,0.00,,2013-01-26 08:38:00,
2013-01-26 02:43:00,58.5,57.7,-100.00,ESE,112,1.6,3.5,96,0.00,,,0.00,,2013-01-26 08:43:00,
2013-01-26 02:48:00,58.5,57.8,-100.00,ESE,112,1.0,2.7,97,0.00,,,0.00,,2013-01-26 08:48:00,
2013-01-26 02:53:00,58.7,57.9,-100.00,ESE,112,1.0,2.7,97,0.00,,,0.00,,2013-01-26 08:53:00,
2013-01-26 02:58:00,58.5,57.7,-100.00,SE,135,0.8,1.8,96,0.00,,,0.00,,2013-01-26 08:58:00,
2013-01-26 03:03:00,58.4,57.7,-100.00,SE,135,0.7,1.3,97,0.00,,,0.00,,2013-01-26 09:03:00,
2013-01-26 03:08:00,58.4,57.7,-100.00,SSE,157,0.8,1.5,97,0.00,,,0.00,,2013-01-26 09:08:00,
2013-01-26 03:13:00,58.2,57.5,-100.00,SSE,157,0.5,1.3,97,0.00,,,0.00,,2013-01-26 09:13:00,
2013-01-26 03:18:00,57.9,57.1,-100.00,SSE,157,0.7,1.3,97,0.00,,,0.00,,2013-01-26 09:18:00,
2013-01-26 03:23:00,57.9,57.3,-100.00,SE,135,0.7,1.3,97,0.00,,,0.00,,2013-01-26 09:23:00,
2013-01-26 03:28:00,57.5,56.9,-100.00,SSE,157,0.2,1.2,97,0.00,,,0.00,,2013-01-26 09:28:00,
2013-01-26 03:33:00,57.5,56.8,-100.00,SSE,157,0.3,1.3,97,0.00,,,0.00,,2013-01-26 09:33:00,
2013-01-26 03:38:00,57.3,56.6,-100.00,SSW,202,0.4,1.3,97,0.00,,,0.00,,2013-01-26 09:38:00,
2013-01-26 03:43:00,56.6,55.9,-100.00,SSW,202,0.0,0.3,97,0.00,,,0.00,,2013-01-26 09:43:00,
2013-01-26 03:48:00,56.3,55.6,-100.00,SSW,202,0.0,0.0,97,0.00,,,0.00,,2013-01-26 09:48:00,
2013-01-26 03:53:00,56.0,55.3,-100.00,SSW,202,0.0,0.0,97,0.00,,,0.00,,2013-01-26 09:53:00,
2013-01-26 03:58:00,55.8,55.2,-100.00,SSW,202,0.0,0.0,97,0.00,,,0.00,,2013-01-26 09:58:00,
2013-01-26 04:03:00,55.3,54.5,-100.00,SSW,202,0.0,0.0,97,0.00,,,0.00,,2013-01-26 10:03:00,
2013-01-26 04:08:00,54.7,54.1,-100.00,SSW,202,0.0,0.0,97,0.00,,,0.00,,2013-01-26 10:08:00,
2013-01-26 04:13:00,54.4,53.7,-100.00,SSW,202,0.0,0.0,97,0.00,,,0.00,,2013-01-26 10:13:00,
2013-01-26 04:18:00,53.9,53.2,-100.00,SSW,202,0.0,0.4,97,0.00,,,0.00,,2013-01-26 10:18:00,
2013-01-26 04:23:00,53.7,53.1,-100.00,SSW,202,0.0,0.4,97,0.00,,,0.00,,2013-01-26 10:23:00,
2013-01-26 04:28:00,53.6,53.0,-100.00,SSW,202,0.0,0.0,97,0.00,,,0.00,,2013-01-26 10:28:00,
2013-01-26 04:33:00,53.2,52.4,-100.00,SSW,202,0.0,0.0,97,0.00,,,0.00,,2013-01-26 10:33:00,
2013-01-26 04:38:00,53.0,52.4,-100.00,SSW,202,0.1,0.9,97,0.00,,,0.00,,2013-01-26 10:38:00,
2013-01-26 04:43:00,52.9,52.3,-100.00,SSW,202,0.1,0.9,97,0.00,,,0.00,,2013-01-26 10:43:00,
2013-01-26 04:48:00,52.8,52.0,-100.00,SSW,202,0.0,0.0,96,0.00,,,0.00,,2013-01-26 10:48:00,
2013-01-26 04:53:00,52.7,52.2,-100.00,SSW,202,0.0,0.0,98,0.00,,,0.00,,2013-01-26 10:53:00,
2013-01-26 04:59:00,52.7,52.1,-100.00,SSW,202,0.0,0.0,97,0.00,,,0.00,,2013-01-26 10:59:00,
2013-01-26 05:04:00,52.8,52.3,-100.00,SSW,202,0.0,0.0,98,0.00,,,0.00,,2013-01-26 11:04:00,
2013-01-26 05:09:00,52.8,52.3,-100.00,SSW,202,0.0,0.0,98,0.00,,,0.00,,2013-01-26 11:09:00,
2013-01-26 05:14:00,52.8,52.3,-100.00,SSW,202,0.0,0.0,98,0.00,,,0.00,,2013-01-26 11:14:00,
2013-01-26 05:19:00,52.7,52.3,-100.00,SSW,202,0.0,0.4,98,0.00,,,0.00,,2013-01-26 11:19:00,
2013-01-26 05:24:00,52.6,52.2,-100.00,SSW,202,0.0,0.3,98,0.00,,,0.00,,2013-01-26 11:24:00,
2013-01-26 05:29:00,52.4,52.0,-100.00,SSW,202,0.0,0.0,98,0.00,,,0.00,,2013-01-26 11:29:00,
2013-01-26 05:34:00,52.2,51.9,-100.00,SSW,202,0.0,0.0,98,0.00,,,0.00,,2013-01-26 11:34:00,
2013-01-26 05:39:00,52.1,51.8,-100.00,SSW,202,0.0,0.0,98,0.00,,,0.00,,2013-01-26 11:39:00,
2013-01-26 05:44:00,52.1,51.8,-100.00,SSW,202,0.0,0.0,98,0.00,,,0.00,,2013-01-26 11:44:00,
2013-01-26 05:49:00,52.1,51.8,-100.00,SSW,202,0.0,0.0,98,0.00,,,0.00,,2013-01-26 11:49:00,
2013-01-26 05:54:00,51.9,51.5,-100.00,SSW,202,0.0,0.0,98,0.00,,,0.00,,2013-01-26 11:54:00,
2013-01-26 05:59:00,51.8,51.4,-100.00,SSW,202,0.0,0.0,98,0.00,,,0.00,,2013-01-26 11:59:00,
2013-01-26 06:04:00,51.7,51.3,-100.00,SSW,202,0.0,0.0,98,0.00,,,0.00,,2013-01-26 12:04:00,
2013-01-26 06:09:00,51.6,51.2,-100.00,SSW,202,0.0,0.0,98,0.00,,,0.00,,2013-01-26 12:09:00,
2013-01-26 06:14:00,51.5,51.1,-100.00,SSW,202,0.1,0.7,98,0.00,,,0.00,,2013-01-26 12:14:00,
2013-01-26 06:19:00,51.5,51.2,-100.00,SSW,202,0.3,0.7,98,0.00,,,0.00,,2013-01-26 12:19:00,
2013-01-26 06:24:00,51.5,50.8,-100.00,SSW,202,0.1,0.6,97,0.00,,,0.00,,2013-01-26 12:24:00,
2013-01-26 06:29:00,51.5,51.0,-100.00,SSW,202,0.0,0.0,98,0.00,,,0.00,,2013-01-26 12:29:00,
2013-01-26 06:34:00,51.3,51.0,-100.00,SSW,202,0.0,0.0,98,0.00,,,0.00,,2013-01-26 12:34:00,
2013-01-26 06:39:00,51.3,51.1,-100.00,SSW,202,0.0,0.0,98,0.00,,,0.00,,2013-01-26 12:39:00,
2013-01-26 06:44:00,51.2,51.0,-100.00,SSW,202,0.0,0.0,98,0.00,,,0.00,,2013-01-26 12:44:00,
2013-01-26 06:49:00,51.1,50.8,-100.00,SSW,202,0.0,0.0,98,0.00,,,0.00,,2013-01-26 12:49:00,
2013-01-26 06:54:00,51.5,51.2,-100.00,SSW,202,0.0,0.0,98,0.00,,,0.00,,2013-01-26 12:54:00,
2013-01-26 07:00:00,51.5,51.1,-100.00,SSW,202,0.0,0.0,98,0.00,,,0.00,,2013-01-26 13:00:00,
2013-01-26 07:05:00,51.3,51.1,-100.00,SSW,202,0.1,0.7,98,0.00,,,0.00,,2013-01-26 13:05:00,
2013-01-26 07:10:00,51.1,50.8,-100.00,SSW,202,0.0,0.1,98,0.00,,,0.00,,2013-01-26 13:10:00,
2013-01-26 07:15:00,51.2,51.0,-100.00,SSW,202,0.0,0.0,98,0.00,,,0.00,,2013-01-26 13:15:00,
2013-01-26 07:20:00,51.2,51.0,-100.00,SSW,202,0.0,0.0,98,0.00,,,0.00,,2013-01-26 13:20:00,
2013-01-26 07:25:00,51.3,51.2,-100.00,SSW,202,0.0,0.9,99,0.00,,,0.00,,2013-01-26 13:25:00,
2013-01-26 07:30:00,51.5,51.2,-100.00,SSW,202,0.1,0.9,98,0.00,,,0.00,,2013-01-26 13:30:00,
2013-01-26 07:35:00,51.7,51.4,-100.00,SW,225,0.0,0.7,98,0.00,,,0.00,,2013-01-26 13:35:00,
2013-01-26 07:40:00,51.9,51.5,-100.00,SW,225,0.1,1.3,98,0.00,,,0.00,,2013-01-26 13:40:00,
2013-01-26 07:45:00,52.2,52.0,-100.00,SW,225,0.2,1.3,99,0.00,,,0.00,,2013-01-26 13:45:00,
2013-01-26 07:50:00,52.9,52.7,-100.00,SW,225,0.0,0.9,99,0.00,,,0.00,,2013-01-26 13:50:00,
2013-01-26 07:55:00,53.3,52.9,-100.00,SW,225,0.0,0.0,98,0.00,,,0.00,,2013-01-26 13:55:00,
2013-01-26 08:00:00,53.7,53.4,-100.00,SW,225,0.0,0.0,98,0.00,,,0.00,,2013-01-26 14:00:00,
2013-01-26 08:05:00,54.3,53.9,-100.00,SW,225,0.0,0.0,98,0.00,,,0.00,,2013-01-26 14:05:00,
2013-01-26 08:10:00,55.3,55.0,-100.00,SW,225,0.0,0.0,98,0.00,,,0.00,,2013-01-26 14:10:00,
2013-01-26 08:15:00,55.4,55.1,-100.00,SW,225,0.1,0.7,98,0.00,,,0.00,,2013-01-26 14:15:00,
2013-01-26 08:20:00,56.4,55.9,-100.00,SW,225,0.0,0.4,98,0.00,,,0.00,,2013-01-26 14:20:00,
2013-01-26 08:25:00,57.9,57.4,-100.00,SW,225,0.0,0.1,98,0.00,,,0.00,,2013-01-26 14:25:00,
2013-01-26 08:30:00,58.8,58.3,-100.00,SE,135,0.0,0.1,98,0.00,,,0.00,,2013-01-26 14:30:00,
2013-01-26 08:35:00,58.7,58.2,-100.00,NNW,337,0.2,0.9,98,0.00,,,0.00,,2013-01-26 14:35:00,
2013-01-26 08:40:00,58.9,58.1,-100.00,East,90,0.5,1.0,97,0.00,,,0.00,,2013-01-26 14:40:00,
2013-01-26 08:45:00,59.3,58.6,-100.00,SE,135,0.3,1.2,97,0.00,,,0.00,,2013-01-26 14:45:00,
2013-01-26 08:50:00,60.0,59.1,-100.00,South,180,0.2,1.2,96,0.00,,,0.00,,2013-01-26 14:50:00,
2013-01-26 08:55:00,60.7,59.5,-100.00,SSE,157,0.5,1.2,95,0.00,,,0.00,,2013-01-26 14:55:00,
2013-01-26 09:00:00,61.4,60.3,-100.00,SSE,157,0.8,1.4,96,0.00,,,0.00,,2013-01-26 15:00:00,
2013-01-26 09:05:00,61.7,60.2,-100.00,SSE,157,1.0,2.4,94,0.00,,,0.00,,2013-01-26 15:05:00,
2013-01-26 09:10:00,62.8,61.1,-100.00,SSE,157,1.0,2.4,94,0.00,,,0.00,,2013-01-26 15:10:00,
2013-01-26 09:15:00,63.7,61.6,-100.00,SE,135,0.8,2.4,92,0.00,,,0.00,,2013-01-26 15:15:00,
2013-01-26 09:20:00,64.5,61.4,-100.00,SSE,157,1.3,3.3,89,0.00,,,0.00,,2013-01-26 15:20:00,
2013-01-26 09:25:00,64.7,61.4,-100.00,SE,135,2.2,3.8,88,0.00,,,0.00,,2013-01-26 15:25:00,
2013-01-26 09:30:00,65.2,62.0,-100.00,SSE,157,2.7,4.2,89,0.00,,,0.00,,2013-01-26 15:30:00,
2013-01-26 09:35:00,65.9,61.3,-100.00,SSE,157,2.8,4.8,84,0.00,,,0.00,,2013-01-26 15:35:00,
2013-01-26 09:40:00,66.2,61.2,-100.00,South,180,2.7,4.8,83,0.00,,,0.00,,2013-01-26 15:40:00,
2013-01-26 09:45:00,67.1,61.6,-100.00,SSE,157,2.4,5.0,82,0.00,,,0.00,,2013-01-26 15:45:00,
2013-01-26 09:50:00,67.7,61.3,-100.00,SE,135,2.3,5.0,79,0.00,,,0.00,,2013-01-26 15:50:00,
2013-01-26 09:55:00,67.0,60.5,-100.00,ESE,112,2.8,5.6,79,0.00,,,0.00,,2013-01-26 15:55:00,
2013-01-26 10:00:00,66.9,60.7,-100.00,SE,135,3.9,6.7,80,0.00,,,0.00,,2013-01-26 16:00:00,
2013-01-26 10:05:00,67.2,60.5,-100.00,SSE,157,3.8,6.7,78,0.00,,,0.00,,2013-01-26 16:05:00,
2013-01-26 10:10:00,67.4,60.8,-100.00,South,180,3.1,5.9,78,0.00,,,0.00,,2013-01-26 16:10:00,
2013-01-26 10:15:00,67.6,60.7,-100.00,South,180,2.9,4.9,78,0.00,,,0.00,,2013-01-26 16:15:00,
2013-01-26 10:20:00,67.3,60.6,-100.00,South,180,3.2,6.1,78,0.00,,,0.00,,2013-01-26 16:20:00,
2013-01-26 10:25:00,66.4,59.7,-100.00,SE,135,2.4,6.1,78,0.00,,,0.00,,2013-01-26 16:25:00,
2013-01-26 10:30:00,67.0,61.1,-100.00,ESE,112,1.6,4.7,81,0.00,,,0.00,,2013-01-26 16:30:00,
2013-01-26 10:35:00,68.7,61.1,-100.00,SE,135,1.4,4.0,76,0.00,,,0.00,,2013-01-26 16:35:00,
2013-01-26 10:40:00,69.6,60.9,-100.00,ESE,112,2.8,7.0,73,0.00,,,0.00,,2013-01-26 16:40:00,
2013-01-26 10:45:00,68.8,60.2,-100.00,ESE,112,3.6,7.7,73,0.00,,,0.00,,2013-01-26 16:45:00,
2013-01-26 10:50:00,68.7,60.4,-100.00,East,90,4.7,7.7,74,0.00,,,0.00,,2013-01-26 16:50:00,
2013-01-26 10:55:00,69.2,60.1,-100.00,East,90,4.5,7.4,72,0.00,,,0.00,,2013-01-26 16:55:00,
2013-01-26 11:00:00,69.9,60.4,-100.00,East,90,4.1,6.7,71,0.00,,,0.00,,2013-01-26 17:00:00,
2013-01-26 11:05:00,69.3,58.9,-100.00,East,90,4.5,6.9,69,0.00,,,0.00,,2013-01-26 17:05:00,
2013-01-26 11:10:00,70.5,61.0,-100.00,ESE,112,4.9,7.1,71,0.00,,,0.00,,2013-01-26 17:10:00,
2013-01-26 11:15:00,70.1,60.0,-100.00,SE,135,4.2,7.7,69,0.00,,,0.00,,2013-01-26 17:15:00,
2013-01-26 11:20:00,70.7,61.2,-100.00,East,90,3.7,7.7,71,0.00,,,0.00,,2013-01-26 17:20:00,
2013-01-26 11:25:00,71.2,60.8,-100.00,ENE,67,3.5,6.5,69,0.00,,,0.00,,2013-01-26 17:25:00,
2013-01-26 11:31:00,70.7,60.1,-100.00,ENE,67,3.7,6.6,68,0.00,,,0.00,,2013-01-26 17:31:00,
2013-01-26 11:36:00,69.2,60.4,-100.00,NE,45,5.0,8.7,73,0.00,,,0.00,,2013-01-26 17:36:00,
2013-01-26 11:41:00,69.9,60.2,-100.00,NE,45,5.0,8.7,70,0.00,,,0.00,,2013-01-26 17:41:00,
2013-01-26 11:46:00,70.1,60.6,-100.00,NE,45,4.5,7.4,71,0.00,,,0.00,,2013-01-26 17:46:00,
2013-01-26 11:51:00,69.6,60.4,-100.00,NE,45,4.5,7.8,72,0.00,,,0.00,,2013-01-26 17:51:00,
2013-01-26 11:56:00,69.6,61.1,-100.00,NE,45,4.9,7.8,74,0.00,,,0.00,,2013-01-26 17:56:00,
2013-01-26 12:01:00,69.2,60.5,-100.00,ENE,67,4.9,7.3,73,0.00,,,0.00,,2013-01-26 18:01:00,
2013-01-26 12:06:00,69.2,59.8,-100.00,ENE,67,4.1,7.2,71,0.00,,,0.00,,2013-01-26 18:06:00,
2013-01-26 12:11:00,69.8,60.7,-100.00,ENE,67,4.1,6.8,72,0.00,,,0.00,,2013-01-26 18:11:00,
2013-01-26 12:16:00,69.1,60.1,-100.00,ENE,67,4.3,6.8,72,0.00,,,0.00,,2013-01-26 18:16:00,
2013-01-26 12:21:00,69.3,60.9,-100.00,ENE,67,4.5,8.1,74,0.00,,,0.00,,2013-01-26 18:21:00,
2013-01-26 12:26:00,68.6,60.3,-100.00,ENE,67,4.8,7.7,74,0.00,,,0.00,,2013-01-26 18:26:00,
2013-01-26 12:31:00,68.9,59.4,-100.00,ENE,67,5.0,8.1,71,0.00,,,0.00,,2013-01-26 18:31:00,
2013-01-26 12:36:00,69.2,60.0,-100.00,ENE,67,4.8,8.6,72,0.00,,,0.00,,2013-01-26 18:36:00,
2013-01-26 12:41:00,69.8,61.1,-100.00,ENE,67,5.1,8.6,73,0.00,,,0.00,,2013-01-26 18:41:00,
2013-01-26 12:46:00,69.2,59.9,-100.00,ENE,67,4.7,7.7,71,0.00,,,0.00,,2013-01-26 18:46:00,
2013-01-26 12:51:00,69.8,60.1,-100.00,East,90,4.7,7.5,70,0.00,,,0.00,,2013-01-26 18:51:00,
2013-01-26 12:56:00,69.2,59.9,-100.00,ENE,67,5.0,7.8,71,0.00,,,0.00,,2013-01-26 18:56:00,
2013-01-26 13:01:00,68.7,60.3,-100.00,ENE,67,5.7,8.8,74,0.00,,,0.00,,2013-01-26 19:01:00,
2013-01-26 13:06:00,69.0,59.6,-100.00,ENE,67,5.1,8.8,71,0.00,,,0.00,,2013-01-26 19:06:00,
2013-01-26 13:11:00,69.0,59.7,-100.00,East,90,5.2,8.2,71,0.00,,,0.00,,2013-01-26 19:11:00,
2013-01-26 13:16:00,69.1,59.9,-100.00,ENE,67,5.4,8.9,72,0.00,,,0.00,,2013-01-26 19:16:00,
2013-01-26 13:21:00,69.8,60.4,-100.00,ENE,67,4.8,8.2,71,0.00,,,0.00,,2013-01-26 19:21:00,
2013-01-26 13:26:00,70.7,60.6,-100.00,East,90,4.6,8.2,69,0.00,,,0.00,,2013-01-26 19:26:00,
2013-01-26 13:31:00,70.4,59.8,-100.00,East,90,4.5,7.7,68,0.00,,,0.00,,2013-01-26 19:31:00,
2013-01-26 13:36:00,70.9,60.0,-100.00,East,90,4.5,9.1,67,0.00,,,0.00,,2013-01-26 19:36:00,
2013-01-26 13:41:00,71.5,60.3,-100.00,East,90,3.5,6.3,67,0.00,,,0.00,,2013-01-26 19:41:00,
2013-01-26 13:46:00,69.9,59.0,-100.00,East,90,3.8,7.1,67,0.00,,,0.00,,2013-01-26 19:46:00,
2013-01-26 13:51:00,70.1,59.2,-100.00,East,90,4.7,8.1,67,0.00,,,0.00,,2013-01-26 19:51:00,
2013-01-26 13:56:00,69.3,58.5,-100.00,ENE,67,5.4,8.3,67,0.00,,,0.00,,2013-01-26 19:56:00,
2013-01-26 14:01:00,69.9,58.6,-100.00,ENE,67,5.0,8.1,66,0.00,,,0.00,,2013-01-26 20:01:00,
2013-01-26 14:06:00,69.9,58.3,-100.00,ENE,67,5.0,6.9,66,0.00,,,0.00,,2013-01-26 20:06:00,
2013-01-26 14:11:00,70.1,57.2,-100.00,ENE,67,4.9,7.6,63,0.00,,,0.00,,2013-01-26 20:11:00,
2013-01-26 14:16:00,70.6,58.0,-100.00,ENE,67,4.8,7.6,64,0.00,,,0.00,,2013-01-26 20:16:00,
2013-01-26 14:21:00,70.6,57.7,-100.00,ENE,67,5.2,7.8,63,0.00,,,0.00,,2013-01-26 20:21:00,
2013-01-26 14:26:00,70.7,57.3,-100.00,ENE,67,5.2,7.4,62,0.00,,,0.00,,2013-01-26 20:26:00,
2013-01-26 14:31:00,69.9,56.5,-100.00,ENE,67,5.8,9.7,62,0.00,,,0.00,,2013-01-26 20:31:00,
2013-01-26 14:36:00,71.0,58.5,-100.00,East,90,5.4,9.7,64,0.00,,,0.00,,2013-01-26 20:36:00,
2013-01-26 14:41:00,69.8,57.9,-100.00,ENE,67,4.6,8.6,65,0.00,,,0.00,,2013-01-26 20:41:00,
2013-01-26 14:47:00,69.2,59.3,-100.00,ENE,67,4.7,8.6,70,0.00,,,0.00,,2013-01-26 20:47:00,
2013-01-26 14:52:00,68.9,59.1,-100.00,ENE,67,4.9,8.0,70,0.00,,,0.00,,2013-01-26 20:52:00,
2013-01-26 14:57:00,69.1,59.1,-100.00,ENE,67,4.5,7.9,70,0.00,,,0.00,,2013-01-26 20:57:00,
2013-01-26 15:02:00,68.8,59.2,-100.00,ENE,67,4.4,7.3,71,0.00,,,0.00,,2013-01-26 21:02:00,
2013-01-26 15:07:00,69.1,60.5,-100.00,ENE,67,4.9,7.8,73,0.00,,,0.00,,2013-01-26 21:07:00,
2013-01-26 15:12:00,69.0,60.0,-100.00,ENE,67,4.6,7.8,72,0.00,,,0.00,,2013-01-26 21:12:00,
2013-01-26 15:17:00,68.6,60.3,-100.00,NE,45,5.0,7.1,74,0.00,,,0.00,,2013-01-26 21:17:00,
2013-01-26 15:22:00,68.7,59.2,-100.00,ENE,67,5.0,7.1,71,0.00,,,0.00,,2013-01-26 21:22:00,
2013-01-26 15:27:00,68.6,59.9,-100.00,ENE,67,4.9,8.0,73,0.00,,,0.00,,2013-01-26 21:27:00,
2013-01-26 15:32:00,68.6,60.3,-100.00,ENE,67,4.6,8.0,74,0.00,,,0.00,,2013-01-26 21:32:00,
2013-01-26 15:37:00,68.6,59.6,-100.00,ENE,67,3.8,6.1,72,0.00,,,0.00,,2013-01-26 21:37:00,
2013-01-26 15:42:00,68.3,59.8,-100.00,ENE,67,3.7,6.0,73,0.00,,,0.00,,2013-01-26 21:42:00,
2013-01-26 15:47:00,68.3,59.5,-100.00,ENE,67,3.4,5.9,72,0.00,,,0.00,,2013-01-26 21:47:00,
2013-01-26 15:52:00,68.6,59.8,-100.00,ENE,67,3.1,5.6,73,0.00,,,0.00,,2013-01-26 21:52:00,
2013-01-26 15:57:00,68.9,60.0,-100.00,ENE,67,2.5,4.4,72,0.00,,,0.00,,2013-01-26 21:57:00,
2013-01-26 16:02:00,69.3,60.0,-100.00,NE,45,1.7,3.5,71,0.00,,,0.00,,2013-01-26 22:02:00,
2013-01-26 16:07:00,68.2,60.1,-100.00,NE,45,2.6,4.9,75,0.00,,,0.00,,2013-01-26 22:07:00,
2013-01-26 16:12:00,68.0,60.6,-100.00,NE,45,3.0,4.9,76,0.00,,,0.00,,2013-01-26 22:12:00,
2013-01-26 16:17:00,67.7,60.3,-100.00,NE,45,3.0,4.8,76,0.00,,,0.00,,2013-01-26 22:17:00,
2013-01-26 16:22:00,68.0,60.1,-100.00,NE,45,2.6,4.1,75,0.00,,,0.00,,2013-01-26 22:22:00,
2013-01-26 16:27:00,68.3,60.3,-100.00,NE,45,1.7,3.7,75,0.00,,,0.00,,2013-01-26 22:27:00,
2013-01-26 16:32:00,67.6,59.8,-100.00,NNE,22,2.1,5.2,75,0.00,,,0.00,,2013-01-26 22:32:00,
2013-01-26 16:37:00,66.7,60.4,-100.00,NNE,22,3.2,5.8,80,0.00,,,0.00,,2013-01-26 22:37:00,
2013-01-26 16:42:00,66.1,59.6,-100.00,NE,45,3.1,5.8,79,0.00,,,0.00,,2013-01-26 22:42:00,
2013-01-26 16:47:00,66.0,59.9,-100.00,NE,45,3.2,5.5,80,0.00,,,0.00,,2013-01-26 22:47:00,
2013-01-26 16:52:00,65.8,59.8,-100.00,NE,45,3.3,6.0,80,0.00,,,0.00,,2013-01-26 22:52:00,
2013-01-26 16:57:00,65.6,59.9,-100.00,NE,45,3.2,6.0,81,0.00,,,0.00,,2013-01-26 22:57:00,
2013-01-26 17:02:00,65.2,60.0,-100.00,NE,45,3.2,4.9,83,0.00,,,0.00,,2013-01-26 23:02:00,
2013-01-26 17:08:00,65.1,59.9,-100.00,NE,45,2.1,4.2,82,0.00,,,0.00,,2013-01-26 23:08:00,
2013-01-26 17:13:00,64.6,59.4,-100.00,NNE,22,2.2,5.2,82,0.00,,,0.00,,2013-01-26 23:13:00,
2013-01-26 17:18:00,64.5,59.9,-100.00,NE,45,2.5,5.2,84,0.00,,,0.00,,2013-01-26 23:18:00,
2013-01-26 17:23:00,64.3,59.6,-100.00,NE,45,1.8,4.4,84,0.00,,,0.00,,2013-01-26 23:23:00,
2013-01-26 17:28:00,64.2,59.6,-100.00,NE,45,1.8,4.1,84,0.00,,,0.00,,2013-01-26 23:28:00,
2013-01-26 17:33:00,64.0,59.5,-100.00,NE,45,2.1,4.1,85,0.00,,,0.00,,2013-01-26 23:33:00,
2013-01-26 17:38:00,63.7,59.4,-100.00,NE,45,2.4,4.2,85,0.00,,,0.00,,2013-01-26 23:38:00,
2013-01-26 17:43:00,63.6,59.5,-100.00,NE,45,2.7,5.1,86,0.00,,,0.00,,2013-01-26 23:43:00,
2013-01-26 17:48:00,63.5,59.5,-100.00,NE,45,2.4,5.1,86,0.00,,,0.00,,2013-01-26 23:48:00,
2013-01-26 17:53:00,63.5,59.6,-100.00,NE,45,2.3,4.9,86,0.00,,,0.00,,2013-01-26 23:53:00,
2013-01-26 17:58:00,63.4,59.7,-100.00,NE,45,2.2,5.2,87,0.00,,,0.00,,2013-01-26 23:58:00,
2013-01-26 18:03:00,63.3,59.7,-100.00,NE,45,1.8,3.9,87,0.00,,,0.00,,2013-01-27 00:03:00,
2013-01-26 18:08:00,63.0,59.3,-100.00,NNE,22,1.4,3.6,87,0.00,,,0.00,,2013-01-27 00:08:00,
2013-01-26 18:13:00,62.9,59.8,-100.00,NNE,22,1.0,2.1,89,0.00,,,0.00,,2013-01-27 00:13:00,
2013-01-26 18:18:00,62.8,59.2,-100.00,North,0,1.0,1.9,87,0.00,,,0.00,,2013-01-27 00:18:00,
2013-01-26 18:23:00,62.7,59.4,-100.00,NNW,337,0.9,1.7,88,0.00,,,0.00,,2013-01-27 00:23:00,
2013-01-26 18:28:00,62.5,59.3,-100.00,NNW,337,0.6,1.3,89,0.00,,,0.00,,2013-01-27 00:28:00,
2013-01-26 18:33:00,62.3,59.2,-100.00,NNW,337,0.7,1.5,89,0.00,,,0.00,,2013-01-27 00:33:00,
2013-01-26 18:38:00,62.3,59.2,-100.00,North,0,0.6,1.5,89,0.00,,,0.00,,2013-01-27 00:38:00,
2013-01-26 18:43:00,62.2,59.3,-100.00,NNW,337,0.1,0.7,90,0.00,,,0.00,,2013-01-27 00:43:00,
2013-01-26 18:48:00,61.8,58.9,-100.00,NW,315,0.2,1.3,90,0.00,,,0.00,,2013-01-27 00:48:00,
2013-01-26 18:53:00,61.6,58.8,-100.00,West,270,0.4,1.3,90,0.00,,,0.00,,2013-01-27 00:53:00,
2013-01-26 18:58:00,61.4,58.8,-100.00,West,270,0.1,0.7,91,0.00,,,0.00,,2013-01-27 00:58:00,
2013-01-26 19:03:00,61.2,58.6,-100.00,West,270,0.0,0.0,90,0.00,,,0.00,,2013-01-27 01:03:00,
2013-01-26 19:08:00,61.0,58.4,-100.00,West,270,0.0,0.0,90,0.00,,,0.00,,2013-01-27 01:08:00,
2013-01-26 19:13:00,60.3,58.0,-100.00,West,270,0.1,0.9,91,0.00,,,0.00,,2013-01-27 01:13:00,
2013-01-26 19:18:00,60.1,58.0,-100.00,West,270,0.1,0.9,92,0.00,,,0.00,,2013-01-27 01:18:00,
2013-01-26 19:23:00,60.0,57.9,-100.00,West,270,0.0,0.1,92,0.00,,,0.00,,2013-01-27 01:23:00,
2013-01-26 19:28:00,59.8,57.6,-100.00,West,270,0.0,0.0,92,0.00,,,0.00,,2013-01-27 01:28:00,
2013-01-26 19:33:00,59.6,57.6,-100.00,West,270,0.2,1.2,92,0.00,,,0.00,,2013-01-27 01:33:00,
2013-01-26 19:38:00,59.1,57.2,-100.00,WNW,292,0.3,1.2,93,0.00,,,0.00,,2013-01-27 01:38:00,
2013-01-26 19:43:00,58.9,57.0,-100.00,NNW,337,0.2,1.0,93,0.00,,,0.00,,2013-01-27 01:43:00,
2013-01-26 19:48:00,58.9,57.0,-100.00,NE,45,0.3,1.0,93,0.00,,,0.00,,2013-01-27 01:48:00,
2013-01-26 19:53:00,58.5,56.8,-100.00,North,0,0.2,0.9,93,0.00,,,0.00,,2013-01-27 01:53:00,
2013-01-26 19:58:00,58.4,56.6,-100.00,WNW,292,0.1,0.7,93,0.00,,,0.00,,2013-01-27 01:58:00,
2013-01-26 20:03:00,58.4,56.8,-100.00,WNW,292,0.0,0.0,94,0.00,,,0.00,,2013-01-27 02:03:00,
2013-01-26 20:08:00,58.1,56.4,-100.00,WNW,292,0.0,0.0,94,0.00,,,0.00,,2013-01-27 02:08:00,
2013-01-26 20:13:00,58.0,56.3,-100.00,WNW,292,0.0,0.0,94,0.00,,,0.00,,2013-01-27 02:13:00,
2013-01-26 20:18:00,57.8,56.2,-100.00,WNW,292,0.0,0.0,94,0.00,,,0.00,,2013-01-27 02:18:00,
2013-01-26 20:23:00,57.7,56.1,-100.00,WNW,292,0.0,0.0,94,0.00,,,0.00,,2013-01-27 02:23:00,
2013-01-26 20:28:00,57.4,55.9,-100.00,WNW,292,0.0,0.0,94,0.00,,,0.00,,2013-01-27 02:28:00,
2013-01-26 20:33:00,57.3,55.9,-100.00,WNW,292,0.0,0.0,94,0.00,,,0.00,,2013-01-27 02:33:00,
2013-01-26 20:38:00,57.2,55.6,-100.00,WNW,292,0.0,0.0,94,0.00,,,0.00,,2013-01-27 02:38:00,
2013-01-26 20:43:00,57.0,55.6,-100.00,WNW,292,0.0,0.0,94,0.00,,,0.00,,2013-01-27 02:43:00,
2013-01-26 20:48:00,57.0,55.6,-100.00,WNW,292,0.0,0.0,94,0.00,,,0.00,,2013-01-27 02:48:00,
2013-01-26 20:53:00,56.6,55.2,-100.00,WNW,292,0.0,0.0,94,0.00,,,0.00,,2013-01-27 02:53:00,
2013-01-26 20:58:00,56.6,55.3,-100.00,WNW,292,0.0,0.0,95,0.00,,,0.00,,2013-01-27 02:58:00,
2013-01-26 21:03:00,56.6,55.3,-100.00,WNW,292,0.0,0.0,95,0.00,,,0.00,,2013-01-27 03:03:00,
2013-01-26 21:08:00,56.3,55.2,-100.00,WNW,292,0.0,0.0,96,0.00,,,0.00,,2013-01-27 03:08:00,
2013-01-26 21:13:00,56.3,55.2,-100.00,WNW,292,0.0,0.0,96,0.00,,,0.00,,2013-01-27 03:13:00,
2013-01-26 21:18:00,56.2,55.1,-100.00,WNW,292,0.0,0.0,96,0.00,,,0.00,,2013-01-27 03:18:00,
2013-01-26 21:23:00,56.1,54.9,-100.00,WNW,292,0.0,0.0,95,0.00,,,0.00,,2013-01-27 03:23:00,
2013-01-26 21:28:00,56.0,54.9,-100.00,WNW,292,0.0,0.0,96,0.00,,,0.00,,2013-01-27 03:28:00,
2013-01-26 21:33:00,55.8,54.7,-100.00,WNW,292,0.0,0.0,95,0.00,,,0.00,,2013-01-27 03:33:00,
2013-01-26 21:38:00,55.8,54.8,-100.00,WNW,292,0.1,0.7,96,0.00,,,0.00,,2013-01-27 03:38:00,
2013-01-26 21:44:00,55.6,54.5,-100.00,WNW,292,0.1,0.7,96,0.00,,,0.00,,2013-01-27 03:44:00,
2013-01-26 21:49:00,55.4,54.3,-100.00,WNW,292,0.0,0.0,96,0.00,,,0.00,,2013-01-27 03:49:00,
2013-01-26 21:54:00,55.3,54.3,-100.00,WNW,292,0.0,0.0,96,0.00,,,0.00,,2013-01-27 03:54:00,
2013-01-26 21:59:00,55.2,54.2,-100.00,WNW,292,0.0,0.0,96,0.00,,,0.00,,2013-01-27 03:59:00,
2013-01-26 22:04:00,55.0,54.0,-100.00,WNW,292,0.0,0.0,96,0.00,,,0.00,,2013-01-27 04:04:00,
2013-01-26 22:09:00,54.8,53.8,-100.00,WNW,292,0.0,0.0,96,0.00,,,0.00,,2013-01-27 04:09:00,
2013-01-26 22:14:00,54.8,53.9,-100.00,WNW,292,0.0,0.0,96,0.00,,,0.00,,2013-01-27 04:14:00,
2013-01-26 22:19:00,54.6,53.6,-100.00,WNW,292,0.0,0.0,96,0.00,,,0.00,,2013-01-27 04:19:00,
2013-01-26 22:24:00,54.6,53.8,-100.00,WNW,292,0.0,0.0,96,0.00,,,0.00,,2013-01-27 04:24:00,
2013-01-26 22:29:00,54.5,53.6,-100.00,WNW,292,0.0,0.0,96,0.00,,,0.00,,2013-01-27 04:29:00,
2013-01-26 22:34:00,54.4,53.5,-100.00,WNW,292,0.0,0.0,96,0.00,,,0.00,,2013-01-27 04:34:00,
2013-01-26 22:39:00,54.2,53.3,-100.00,WNW,292,0.0,0.0,96,0.00,,,0.00,,2013-01-27 04:39:00,
2013-01-26 22:44:00,54.2,53.2,-100.00,WNW,292,0.0,0.0,96,0.00,,,0.00,,2013-01-27 04:44:00,
2013-01-26 22:49:00,54.3,53.3,-100.00,WNW,292,0.0,0.0,96,0.00,,,0.00,,2013-01-27 04:49:00,
2013-01-26 22:54:00,54.2,53.2,-100.00,WNW,292,0.0,0.0,96,0.00,,,0.00,,2013-01-27 04:54:00,
2013-01-26 22:59:00,54.3,53.3,-100.00,WNW,292,0.0,0.0,96,0.00,,,0.00,,2013-01-27 04:59:00,
2013-01-26 23:00:00,54.2,53.2,-100.00,WNW,292,0.0,0.0,96,0.00,,,0.00,,2013-01-27 05:00:00,
2013-01-26 23:01:00,54.2,53.3,-100.00,WNW,292,0.0,0.0,96,0.00,,,0.00,,2013-01-27 05:01:00,
2013-01-26 23:03:00,54.0,53.1,-100.00,WNW,292,0.0,0.0,96,0.00,,,0.00,,2013-01-27 05:03:00,
2013-01-26 23:08:00,54.0,52.9,-100.00,WNW,292,0.0,0.0,95,0.00,,,0.00,,2013-01-27 05:08:00,
2013-01-26 23:13:00,54.0,52.8,-100.00,WNW,292,0.0,0.0,95,0.00,,,0.00,,2013-01-27 05:13:00,
2013-01-26 23:18:00,53.9,52.9,-100.00,WNW,292,0.0,0.0,96,0.00,,,0.00,,2013-01-27 05:18:00,
2013-01-26 23:23:00,53.9,52.9,-100.00,WNW,292,0.0,0.0,96,0.00,,,0.00,,2013-01-27 05:23:00,
2013-01-26 23:28:00,53.9,52.9,-100.00,WNW,292,0.0,0.0,96,0.00,,,0.00,,2013-01-27 05:28:00,
2013-01-26 23:33:00,53.8,52.8,-100.00,WNW,292,0.0,0.0,96,0.00,,,0.00,,2013-01-27 05:33:00,
2013-01-26 23:38:00,53.7,52.8,-100.00,WNW,292,0.0,0.0,96,0.00,,,0.00,,2013-01-27 05:38:00,
2013-01-26 23:43:00,53.4,52.4,-100.00,WNW,292,0.0,0.0,96,0.00,,,0.00,,2013-01-27 05:43:00,
2013-01-26 23:48:00,53.3,52.4,-100.00,WNW,292,0.0,0.0,96,0.00,,,0.00,,2013-01-27 05:48:00,
2013-01-26 23:53:00,53.3,52.2,-100.00,WNW,292,0.0,0.0,96,0.00,,,0.00,,2013-01-27 05:53:00,
2013-01-26 23:58:00,53.2,52.3,-100.00,WNW,292,0.0,0.0,96,0.00,,,0.00,,2013-01-27 05:58:00,